Time;durP1;ratioP1;P1;durP2;ratioP2;P2;SDS_P1;SDS_P2;PMS_P1;PMS_P2;Temp;Humidity;BMP_temperature;BMP_pressure;BME280_temperature;BME280_humidity;BME280_pressure;Samples;Min_cycle;Max_cycle;Signal;HPM_P1;HPM_P2
2021/01/20 00:02:24;;;;;;;24.60;17.50;;;18.40;66.20;;;;;;5003884;28;20041;-35
2021/01/20 00:04:50;;;;;;;23.70;15.70;;;18.40;66.10;;;;;;5003566;28;20050;-33
2021/01/20 00:07:16;;;;;;;22.63;15.20;;;18.40;66.20;;;;;;5000900;28;20072;-39
2021/01/20 00:09:41;;;;;;;23.70;15.95;;;18.40;66.20;;;;;;5002695;28;20518;-35
2021/01/20 00:12:07;;;;;;;17.75;14.35;;;18.30;66.20;;;;;;5001957;28;20414;-40
2021/01/20 00:14:33;;;;;;;20.65;14.88;;;18.30;66.30;;;;;;5007136;28;20046;-33
2021/01/20 00:16:58;;;;;;;23.48;15.25;;;18.30;66.30;;;;;;5005136;28;20045;-34
2021/01/20 00:19:24;;;;;;;20.92;14.90;;;18.30;66.50;;;;;;5003694;28;20041;-35
2021/01/20 00:21:49;;;;;;;20.08;14.65;;;18.30;66.40;;;;;;5002248;28;20054;-33
2021/01/20 00:24:15;;;;;;;22.00;15.57;;;18.30;66.40;;;;;;5003575;28;20560;-43
2021/01/20 00:26:41;;;;;;;19.73;15.02;;;18.30;66.50;;;;;;5003591;28;20042;-46
2021/01/20 00:29:06;;;;;;;20.25;14.98;;;18.30;66.50;;;;;;5001808;28;20928;-33
2021/01/20 00:31:32;;;;;;;21.63;15.25;;;18.30;66.40;;;;;;5001692;28;20057;-33
2021/01/20 00:33:57;;;;;;;17.45;13.38;;;18.30;66.50;;;;;;5002745;28;20540;-38
2021/01/20 00:36:23;;;;;;;19.33;14.30;;;18.30;66.40;;;;;;5004090;28;20042;-48
2021/01/20 00:38:49;;;;;;;20.13;13.63;;;18.30;66.40;;;;;;5004969;28;20125;-35
2021/01/20 00:41:14;;;;;;;17.35;12.65;;;18.30;66.50;;;;;;5003872;28;20080;-33
2021/01/20 00:43:40;;;;;;;17.08;12.82;;;18.30;66.40;;;;;;5000890;28;20038;-34
2021/01/20 00:46:05;;;;;;;16.63;13.27;;;18.30;66.40;;;;;;5000848;28;20077;-39
2021/01/20 00:48:31;;;;;;;16.08;12.55;;;18.30;66.40;;;;;;5000355;28;20477;-35
2021/01/20 00:50:57;;;;;;;16.92;12.57;;;18.30;66.40;;;;;;5002745;28;20049;-31
2021/01/20 00:53:22;;;;;;;17.17;13.38;;;18.30;66.30;;;;;;5004715;28;20547;-34
2021/01/20 00:55:48;;;;;;;13.90;11.98;;;18.30;66.20;;;;;;5017045;28;20502;-36
2021/01/20 00:58:14;;;;;;;18.63;13.05;;;18.30;66.30;;;;;;5012153;28;20046;-33
2021/01/20 01:00:39;;;;;;;15.00;12.18;;;18.30;66.20;;;;;;5003673;28;20038;-38
2021/01/20 01:03:05;;;;;;;16.33;12.60;;;18.30;66.30;;;;;;5001293;28;20068;-35
2021/01/20 01:05:31;;;;;;;16.42;12.60;;;18.30;66.30;;;;;;5003014;28;20046;-38
2021/01/20 01:07:56;;;;;;;14.30;10.65;;;18.30;66.30;;;;;;5000977;28;20073;-34
2021/01/20 01:10:22;;;;;;;13.50;11.05;;;18.30;66.30;;;;;;4999940;28;20528;-37
2021/01/20 01:12:48;;;;;;;14.10;11.32;;;18.30;66.30;;;;;;5000763;28;20049;-35
2021/01/20 01:15:14;;;;;;;15.63;12.05;;;18.20;66.20;;;;;;5002727;28;20548;-39
2021/01/20 01:17:39;;;;;;;13.60;10.95;;;18.30;66.30;;;;;;5000949;28;20041;-45
2021/01/20 01:20:05;;;;;;;13.68;10.73;;;18.20;66.10;;;;;;5002888;28;20450;-34
2021/01/20 01:22:31;;;;;;;13.93;11.20;;;18.20;67.00;;;;;;5007986;28;20042;-43
2021/01/20 01:24:56;;;;;;;13.77;10.48;;;18.30;66.30;;;;;;5010808;28;20490;-43
2021/01/20 01:27:22;;;;;;;13.07;10.40;;;18.30;66.30;;;;;;5009469;28;20030;-43
2021/01/20 07:12:26;;;;;;;3.67;3.38;;;17.40;70.50;;;;;;5006374;28;20494;-40
2021/01/20 07:14:52;;;;;;;2.88;2.67;;;17.80;72.10;;;;;;4992777;28;20512;-41
2021/01/20 07:17:18;;;;;;;3.50;3.20;;;17.80;70.50;;;;;;4989807;28;20046;-41
2021/01/20 07:19:46;;;;;;;3.30;3.03;;;17.90;70.30;;;;;;4986123;28;20073;-43
2021/01/20 07:22:12;;;;;;;3.33;3.13;;;18.00;69.60;;;;;;4991229;28;20081;-42
2021/01/20 07:24:38;;;;;;;4.75;3.70;;;18.00;69.60;;;;;;4978257;28;20424;-42
2021/01/20 07:27:07;;;;;;;6.75;4.45;;;18.00;69.50;;;;;;4982625;28;20182;-41
2021/01/20 07:29:33;;;;;;;4.20;3.90;;;18.00;69.60;;;;;;4978547;28;20531;-42
2021/01/20 07:31:59;;;;;;;7.43;4.22;;;18.00;69.30;;;;;;4979204;28;20023;-39
2021/01/20 07:34:41;;;;;;;5.00;4.05;;;18.00;69.20;;;;;;4958741;28;20039;-42
2021/01/20 07:37:14;;;;;;;5.93;4.88;;;18.10;69.20;;;;;;4951018;28;20035;-42
2021/01/20 07:39:40;;;;;;;5.50;5.00;;;18.10;69.20;;;;;;4952590;28;20035;-44
2021/01/20 07:42:06;;;;;;;5.95;5.35;;;18.10;69.40;;;;;;4942507;28;20030;-43
2021/01/20 07:44:32;;;;;;;5.15;4.57;;;18.10;68.90;;;;;;4943599;28;20043;-44
2021/01/20 07:47:05;;;;;;;5.85;5.25;;;18.10;68.80;;;;;;4944150;28;20032;-42
2021/01/20 07:49:34;;;;;;;5.53;5.03;;;18.10;70.10;;;;;;4949528;28;20445;-42
2021/01/20 07:52:06;;;;;;;7.07;5.05;;;18.10;69.10;;;;;;4955766;28;20042;-44
2021/01/20 07:54:50;;;;;;;6.38;5.82;;;18.10;69.00;;;;;;4961790;28;20523;-44
2021/01/20 07:57:17;;;;;;;9.25;5.30;;;18.00;68.90;;;;;;4963429;28;20505;-42
2021/01/20 07:59:43;;;;;;;9.80;6.90;;;18.00;68.10;;;;;;4946062;28;20039;-44
2021/01/20 08:02:10;;;;;;;20.58;9.13;;;18.10;68.60;;;;;;4939172;28;20038;-41
2021/01/20 08:04:35;;;;;;;17.33;10.00;;;18.00;67.60;;;;;;4941581;28;20050;-40
2021/01/20 08:07:01;;;;;;;22.40;13.27;;;18.00;68.00;;;;;;4952266;28;20020;-40
2021/01/20 08:09:44;;;;;;;39.83;20.25;;;18.00;68.40;;;;;;4947668;28;20032;-38
2021/01/20 08:12:15;;;;;;;43.92;21.67;;;18.00;68.80;;;;;;4959455;28;20051;-42
2021/01/20 08:14:42;;;;;;;45.17;23.35;;;18.00;68.10;;;;;;4953784;28;20098;-42
2021/01/20 08:17:07;;;;;;;49.55;26.45;;;18.10;68.00;;;;;;4955392;28;20035;-39
2021/01/20 08:19:34;;;;;;;47.78;24.35;;;18.10;67.80;;;;;;4960598;28;20039;-44
2021/01/20 08:22:03;;;;;;;42.80;21.73;;;18.10;68.40;;;;;;4970444;28;20526;-44
2021/01/20 08:24:29;;;;;;;42.88;22.40;;;18.10;67.80;;;;;;4959103;28;20034;-42
2021/01/20 08:26:59;;;;;;;38.15;20.50;;;18.10;67.90;;;;;;4975481;28;20015;-43
2021/01/20 08:29:25;;;;;;;33.45;18.38;;;18.10;68.20;;;;;;4965903;28;20034;-40
2021/01/20 08:32:10;;;;;;;29.17;17.13;;;18.10;68.40;;;;;;4957517;28;20119;-41
2021/01/20 08:34:37;;;;;;;31.55;17.30;;;18.10;68.40;;;;;;4975726;28;20083;-40
2021/01/20 08:37:05;;;;;;;33.40;16.95;;;18.10;68.60;;;;;;4945960;28;20027;-41
2021/01/20 08:39:32;;;;;;;27.83;16.10;;;18.10;68.70;;;;;;4956355;28;20043;-39
2021/01/20 08:42:16;;;;;;;28.15;15.88;;;18.10;68.40;;;;;;4963999;28;20030;-43
2021/01/20 08:45:00;;;;;;;;;;;18.20;68.50;;;;;;4963278;28;20034;-43
2021/01/20 08:47:26;;;;;;;29.23;16.83;;;18.20;68.90;;;;;;4958173;28;20299;-41
2021/01/20 08:49:53;;;;;;;28.33;15.68;;;18.20;68.60;;;;;;4953261;28;20028;-39
2021/01/20 08:52:19;;;;;;;31.60;17.27;;;18.10;68.50;;;;;;4995471;28;20046;-42
2021/01/20 08:54:51;;;;;;;27.25;16.35;;;18.10;68.70;;;;;;4955195;28;20122;-42
2021/01/20 08:57:21;;;;;;;27.15;15.70;;;18.10;68.60;;;;;;4986274;28;20047;-42
2021/01/20 08:59:56;;;;;;;29.77;16.40;;;18.20;68.80;;;;;;4957858;28;20409;-44
2021/01/20 09:02:21;;;;;;;25.15;14.80;;;18.10;68.40;;;;;;4958182;28;20027;-42
2021/01/20 09:04:47;;;;;;;24.10;15.13;;;18.10;68.50;;;;;;4953007;28;20459;-41
2021/01/20 09:07:14;;;;;;;24.02;15.02;;;18.10;68.40;;;;;;4967131;28;20023;-44
2021/01/20 09:09:40;;;;;;;25.10;16.02;;;18.20;68.20;;;;;;4964155;28;20070;-45
2021/01/20 09:12:06;;;;;;;27.95;14.93;;;18.20;68.20;;;;;;4963039;28;20575;-44
2021/01/20 09:14:32;;;;;;;28.40;15.25;;;18.20;67.80;;;;;;4973702;28;20058;-44
2021/01/20 09:17:01;;;;;;;31.15;16.98;;;18.20;67.80;;;;;;4980544;28;20059;-40
2021/01/20 09:19:27;;;;;;;25.63;16.20;;;18.20;67.90;;;;;;4966327;28;20428;-39
2021/01/20 09:21:53;;;;;;;28.25;16.33;;;18.20;67.70;;;;;;4990476;28;20019;-41
2021/01/20 09:24:19;;;;;;;27.77;16.77;;;18.20;67.90;;;;;;4961488;28;20568;-43
2021/01/20 09:26:44;;;;;;;27.73;16.70;;;18.20;67.90;;;;;;4957608;28;20046;-40
2021/01/20 09:29:10;;;;;;;28.63;15.60;;;18.20;67.80;;;;;;4968631;28;20111;-41
2021/01/20 09:31:35;;;;;;;25.38;15.55;;;18.20;67.70;;;;;;4955358;28;20031;-39
2021/01/20 09:34:01;;;;;;;23.27;15.38;;;18.20;67.70;;;;;;4957583;28;20057;-37
2021/01/20 09:36:27;;;;;;;29.10;15.68;;;18.20;67.70;;;;;;4957653;28;20027;-42
2021/01/20 09:38:53;;;;;;;25.40;16.08;;;18.20;67.90;;;;;;4949976;28;20065;-43
2021/01/20 09:41:19;;;;;;;25.20;15.20;;;18.20;67.90;;;;;;4946114;28;20054;-42
2021/01/20 09:43:45;;;;;;;23.85;14.65;;;18.10;68.10;;;;;;4966760;28;20065;-41
2021/01/20 09:46:11;;;;;;;24.55;15.00;;;18.10;68.30;;;;;;4957755;28;20061;-40
2021/01/20 09:48:36;;;;;;;25.45;15.20;;;18.00;68.30;;;;;;4960476;28;20047;-38
2021/01/20 09:51:02;;;;;;;22.67;13.93;;;18.00;68.20;;;;;;4964451;28;20109;-44
2021/01/20 09:53:27;;;;;;;23.27;13.27;;;18.00;68.30;;;;;;4956460;28;20082;-33
2021/01/20 09:55:53;;;;;;;22.17;14.48;;;18.00;68.20;;;;;;4937643;28;20055;-44
2021/01/20 09:58:18;;;;;;;23.00;14.23;;;18.00;68.20;;;;;;4972823;28;20106;-43
2021/01/20 10:00:44;;;;;;;19.92;13.25;;;18.00;68.20;;;;;;4956869;28;20505;-44
2021/01/20 10:03:10;;;;;;;22.17;14.05;;;18.00;68.10;;;;;;4960704;28;20026;-44
2021/01/20 10:05:36;;;;;;;20.55;13.38;;;18.00;68.10;;;;;;4956755;28;20455;-40
2021/01/20 10:08:02;;;;;;;21.67;13.07;;;18.00;68.00;;;;;;4952149;28;20095;-44
2021/01/20 10:10:27;;;;;;;18.25;12.60;;;18.00;68.00;;;;;;4950001;28;20051;-39
2021/01/20 10:12:54;;;;;;;19.63;11.73;;;18.00;68.20;;;;;;4961627;28;20028;-45
2021/01/20 10:15:20;;;;;;;20.02;11.77;;;18.10;68.10;;;;;;4959752;28;20034;-42
2021/01/20 10:17:46;;;;;;;23.73;14.93;;;18.20;67.60;;;;;;4965892;28;20039;-43
2021/01/20 10:20:12;;;;;;;21.80;14.80;;;18.20;67.60;;;;;;4965338;28;20081;-40
2021/01/20 10:22:37;;;;;;;22.23;13.10;;;18.30;67.20;;;;;;4967753;28;20106;-42
2021/01/20 10:25:04;;;;;;;22.95;14.35;;;18.20;67.20;;;;;;4961262;28;20027;-43
2021/01/20 10:27:32;;;;;;;33.75;20.60;;;18.20;67.50;;;;;;4956962;28;20525;-41
2021/01/20 10:29:58;;;;;;;40.00;23.40;;;18.20;67.40;;;;;;4951573;28;20090;-42
2021/01/20 10:32:24;;;;;;;42.60;25.48;;;18.20;67.30;;;;;;4956415;28;20034;-41
2021/01/20 10:34:49;;;;;;;50.40;29.88;;;18.20;67.20;;;;;;4955041;28;20023;-43
2021/01/20 10:37:15;;;;;;;57.53;31.67;;;18.20;67.30;;;;;;4962968;28;20033;-39
2021/01/20 10:39:41;;;;;;;61.28;33.50;;;18.20;67.40;;;;;;4956636;28;20046;-36
2021/01/20 10:42:06;;;;;;;69.13;36.45;;;18.20;67.50;;;;;;4959307;28;20539;-41
2021/01/20 10:44:32;;;;;;;70.45;37.53;;;18.20;67.40;;;;;;4966349;28;20081;-42
2021/01/20 10:46:57;;;;;;;74.28;36.15;;;18.10;67.30;;;;;;4953187;28;20023;-41
2021/01/20 10:49:23;;;;;;;69.90;36.65;;;18.10;67.50;;;;;;4959412;28;20035;-43
2021/01/20 10:51:50;;;;;;;66.80;35.78;;;18.20;67.40;;;;;;4962400;28;20491;-41
2021/01/20 10:54:15;;;;;;;65.78;35.60;;;18.20;67.50;;;;;;4957556;28;20019;-37
2021/01/20 10:56:41;;;;;;;60.55;31.40;;;18.20;67.30;;;;;;4957263;28;20043;-42
2021/01/20 10:59:07;;;;;;;60.25;32.70;;;18.30;67.10;;;;;;4961688;28;20082;-42
2021/01/20 11:01:32;;;;;;;66.22;34.42;;;18.40;66.90;;;;;;4954983;28;20031;-41
2021/01/20 11:03:58;;;;;;;74.55;35.65;;;18.50;66.70;;;;;;4963067;28;20153;-42
2021/01/20 11:06:23;;;;;;;57.72;30.92;;;18.40;66.40;;;;;;4953988;28;20034;-41
2021/01/20 11:08:49;;;;;;;56.17;30.17;;;18.50;66.30;;;;;;4955967;28;20105;-41
2021/01/20 11:11:15;;;;;;;54.20;30.27;;;18.50;66.10;;;;;;4954882;28;20054;-42
2021/01/20 11:13:40;;;;;;;54.47;29.83;;;18.50;66.20;;;;;;4953325;28;20492;-42
2021/01/20 11:16:06;;;;;;;58.40;29.60;;;18.40;66.10;;;;;;4999322;28;20042;-43
2021/01/20 11:18:32;;;;;;;53.70;26.88;;;18.30;66.30;;;;;;4966051;28;20154;-43
2021/01/20 11:20:58;;;;;;;49.15;25.90;;;18.40;66.40;;;;;;4957428;28;20074;-42
2021/01/20 11:23:27;;;;;;;51.70;26.83;;;18.40;66.30;;;;;;4950220;28;20105;-40
2021/01/20 11:25:53;;;;;;;51.25;26.10;;;18.30;65.90;;;;;;4950748;28;20031;-45
2021/01/20 11:28:19;;;;;;;49.70;26.63;;;18.30;66.60;;;;;;4983395;28;20409;-40
2021/01/20 11:30:44;;;;;;;48.30;28.20;;;18.40;67.00;;;;;;4954927;28;20034;-40
2021/01/20 11:33:10;;;;;;;56.70;31.77;;;18.40;66.70;;;;;;4950176;28;20027;-41
2021/01/20 11:35:36;;;;;;;51.70;29.00;;;18.40;67.10;;;;;;4979865;28;20035;-41
2021/01/20 11:38:02;;;;;;;55.72;31.02;;;18.50;67.20;;;;;;4945456;28;20038;-40
2021/01/20 11:40:28;;;;;;;55.08;31.80;;;18.60;67.20;;;;;;4955912;28;20441;-40
2021/01/20 11:42:57;;;;;;;57.38;34.08;;;18.60;66.90;;;;;;4956854;28;20027;-43
2021/01/20 11:45:29;;;;;;;57.42;34.35;;;18.70;66.90;;;;;;4612053;28;9999773;-40
2021/01/20 11:47:55;;;;;;;62.10;36.80;;;18.70;66.90;;;;;;4958803;28;20397;-42
2021/01/20 11:50:21;;;;;;;55.88;33.80;;;18.70;67.00;;;;;;4957756;28;20031;-43
2021/01/20 11:52:47;;;;;;;62.50;38.03;;;18.70;67.10;;;;;;4955642;28;20164;-41
2021/01/20 11:55:13;;;;;;;56.15;34.83;;;18.60;67.20;;;;;;4949884;28;20509;-42
2021/01/20 11:57:39;;;;;;;59.90;35.97;;;18.60;67.30;;;;;;4944923;28;20592;-35
2021/01/20 12:00:05;;;;;;;60.75;34.92;;;18.60;67.40;;;;;;4946660;28;20055;-41
2021/01/20 12:02:30;;;;;;;52.53;32.28;;;18.70;67.50;;;;;;4970644;28;20089;-41
2021/01/20 12:04:56;;;;;;;51.45;31.00;;;18.70;67.40;;;;;;4967957;28;20118;-40
2021/01/20 12:07:22;;;;;;;54.47;33.17;;;18.80;67.30;;;;;;4970769;28;20054;-42
2021/01/20 12:09:47;;;;;;;48.92;30.65;;;18.80;67.60;;;;;;4969987;28;20047;-38
2021/01/20 12:12:13;;;;;;;50.35;31.13;;;18.80;67.30;;;;;;4963613;28;20085;-35
2021/01/20 12:14:39;;;;;;;47.75;31.20;;;18.80;67.20;;;;;;4963118;28;20054;-49
2021/01/20 12:17:05;;;;;;;50.58;32.80;;;18.70;67.70;;;;;;4972822;28;20500;-42
2021/01/20 12:19:31;;;;;;;41.85;27.05;;;18.70;68.20;;;;;;4969974;28;20104;-45
2021/01/20 12:21:56;;;;;;;45.45;28.80;;;18.80;68.20;;;;;;4975449;28;20523;-44
2021/01/20 12:24:22;;;;;;;40.78;25.05;;;18.80;68.20;;;;;;4967708;28;20038;-46
2021/01/20 12:26:48;;;;;;;38.28;25.45;;;18.90;67.60;;;;;;4966239;28;20217;-46
2021/01/20 12:29:13;;;;;;;43.80;27.30;;;18.90;67.90;;;;;;4958959;28;20043;-46
2021/01/20 12:31:39;;;;;;;37.40;25.80;;;18.80;68.10;;;;;;4962290;28;20050;-44
2021/01/20 12:34:04;;;;;;;39.15;25.67;;;18.80;67.50;;;;;;4962672;28;20098;-48
2021/01/20 12:36:30;;;;;;;44.35;26.65;;;18.80;68.40;;;;;;4970380;28;20087;-47
2021/01/20 12:38:56;;;;;;;38.15;25.25;;;18.70;67.70;;;;;;4965562;28;20052;-45
2021/01/20 12:41:21;;;;;;;39.20;25.52;;;18.70;68.30;;;;;;4962968;28;20053;-44
2021/01/20 12:43:47;;;;;;;44.22;26.08;;;18.70;68.90;;;;;;4953680;28;20046;-45
2021/01/20 12:46:13;;;;;;;37.38;23.52;;;18.80;68.60;;;;;;4964731;28;20064;-44
2021/01/20 12:48:38;;;;;;;32.22;21.58;;;18.80;68.90;;;;;;4973395;28;20393;-45
2021/01/20 12:51:04;;;;;;;40.28;25.17;;;18.80;68.20;;;;;;4971083;28;20074;-44
2021/01/20 12:53:30;;;;;;;39.25;25.23;;;18.90;68.50;;;;;;4974726;28;20050;-44
2021/01/20 12:55:55;;;;;;;38.08;25.02;;;18.80;68.20;;;;;;4970995;28;20043;-45
2021/01/20 12:58:21;;;;;;;37.53;24.75;;;18.80;68.60;;;;;;4971588;28;20100;-45
2021/01/20 13:00:46;;;;;;;36.08;22.50;;;18.90;68.00;;;;;;4971235;28;20097;-47
2021/01/20 13:03:12;;;;;;;35.63;23.20;;;18.90;67.90;;;;;;4969904;28;20085;-46
2021/01/20 13:05:38;;;;;;;32.85;22.23;;;18.80;67.90;;;;;;4970568;28;20469;-46
2021/01/20 13:08:04;;;;;;;30.92;19.65;;;18.80;68.10;;;;;;4970898;28;20035;-51
2021/01/20 13:10:29;;;;;;;35.70;22.45;;;18.90;68.10;;;;;;4970947;28;20054;-46
2021/01/20 13:12:55;;;;;;;32.60;21.33;;;18.80;67.80;;;;;;4971338;28;20061;-45
2021/01/20 13:15:23;;;;;;;33.17;21.02;;;18.80;67.80;;;;;;4968358;28;20050;-45
2021/01/20 13:17:50;;;;;;;33.10;21.73;;;18.80;68.30;;;;;;4969732;28;20105;-44
2021/01/20 13:20:16;;;;;;;32.58;20.90;;;18.80;67.90;;;;;;4973051;28;20094;-44
2021/01/20 13:22:41;;;;;;;28.15;19.42;;;18.80;68.10;;;;;;4972293;28;20074;-45
2021/01/20 13:25:07;;;;;;;30.58;19.08;;;18.80;67.80;;;;;;4972178;28;20051;-45
2021/01/20 13:27:34;;;;;;;31.90;20.33;;;18.90;68.30;;;;;;4968176;28;20047;-45
2021/01/20 13:30:01;;;;;;;33.03;20.05;;;18.90;68.00;;;;;;4967823;28;20054;-47
2021/01/20 13:32:27;;;;;;;32.58;19.33;;;18.90;67.80;;;;;;4970942;28;20047;-47
2021/01/20 13:34:52;;;;;;;32.67;20.23;;;18.90;67.40;;;;;;4974239;28;20049;-45
2021/01/20 13:37:18;;;;;;;29.30;19.27;;;18.80;67.80;;;;;;4969571;28;20539;-43
2021/01/20 13:39:44;;;;;;;27.75;19.17;;;18.70;68.20;;;;;;4969372;28;20472;-44
2021/01/20 13:42:09;;;;;;;28.52;18.25;;;18.70;68.30;;;;;;4969977;28;20412;-46
2021/01/20 13:44:35;;;;;;;26.33;17.65;;;18.80;68.10;;;;;;4968705;28;20050;-47
2021/01/20 13:47:00;;;;;;;29.30;19.73;;;18.80;67.80;;;;;;4969182;28;20035;-45
2021/01/20 13:49:26;;;;;;;25.13;16.90;;;18.80;68.10;;;;;;4969346;28;20065;-46
2021/01/20 13:51:52;;;;;;;27.05;17.67;;;18.70;68.00;;;;;;4970524;28;20047;-47
2021/01/20 13:54:17;;;;;;;22.73;15.63;;;18.80;67.80;;;;;;4969697;28;20133;-45
2021/01/20 13:56:43;;;;;;;25.80;15.63;;;18.80;67.80;;;;;;4968734;28;20521;-46
2021/01/20 13:59:09;;;;;;;25.35;16.73;;;18.80;67.60;;;;;;4969664;28;20058;-45
2021/01/20 14:01:34;;;;;;;23.40;15.98;;;18.80;67.60;;;;;;4968776;28;20166;-44
2021/01/20 14:04:00;;;;;;;23.45;16.38;;;18.80;67.60;;;;;;4970473;28;20043;-43
2021/01/20 14:06:25;;;;;;;23.00;16.08;;;18.80;67.60;;;;;;4966391;28;20428;-41
2021/01/20 14:08:51;;;;;;;23.25;16.60;;;18.80;67.50;;;;;;4968921;28;20049;-44
2021/01/20 14:11:16;;;;;;;23.67;16.23;;;18.80;67.40;;;;;;4969087;28;20099;-43
2021/01/20 14:13:42;;;;;;;20.98;15.13;;;18.80;67.40;;;;;;4968644;28;20515;-44
2021/01/20 14:16:07;;;;;;;21.83;15.45;;;18.80;67.40;;;;;;4969780;28;20463;-43
2021/01/20 14:18:34;;;;;;;20.00;14.70;;;18.80;67.50;;;;;;4967676;28;20105;-43
2021/01/20 14:21:00;;;;;;;22.60;16.08;;;18.70;67.50;;;;;;4969063;28;20043;-44
2021/01/20 14:23:26;;;;;;;21.02;15.35;;;18.70;67.50;;;;;;4983648;28;20057;-43
2021/01/20 14:25:52;;;;;;;18.98;13.23;;;18.70;67.60;;;;;;4967171;28;20423;-46
2021/01/20 14:28:18;;;;;;;21.50;14.27;;;18.70;67.60;;;;;;4967647;28;20043;-44
2021/01/20 14:30:43;;;;;;;17.23;13.18;;;18.70;67.70;;;;;;4966764;28;20101;-47
2021/01/20 14:33:09;;;;;;;18.55;13.98;;;18.60;67.70;;;;;;4968878;28;20051;-47
2021/01/20 14:35:34;;;;;;;18.42;12.63;;;18.70;67.60;;;;;;4967739;28;20047;-46
2021/01/20 14:38:00;;;;;;;19.10;13.50;;;18.60;67.50;;;;;;4972084;28;20073;-45
2021/01/20 14:40:27;;;;;;;16.52;12.93;;;18.60;67.60;;;;;;4967074;28;20523;-46
2021/01/20 14:42:55;;;;;;;16.15;12.13;;;18.70;67.60;;;;;;4972739;28;20030;-45
2021/01/20 14:45:20;;;;;;;15.43;11.77;;;18.70;67.30;;;;;;4968101;28;20047;-46
2021/01/20 14:47:46;;;;;;;23.60;13.23;;;18.70;67.20;;;;;;4971287;28;20039;-44
2021/01/20 14:50:12;;;;;;;19.50;12.80;;;18.70;67.30;;;;;;4968684;28;20042;-44
2021/01/20 14:52:38;;;;;;;19.30;13.20;;;18.60;67.50;;;;;;4970722;28;20043;-47
2021/01/20 14:55:04;;;;;;;20.48;13.40;;;18.60;67.60;;;;;;4971747;28;20129;-44
2021/01/20 14:57:29;;;;;;;15.45;12.02;;;18.60;67.70;;;;;;4970560;28;20046;-42
2021/01/20 14:59:55;;;;;;;16.30;12.32;;;18.60;67.70;;;;;;4967387;28;20053;-44
2021/01/20 15:02:20;;;;;;;15.07;11.43;;;18.50;67.70;;;;;;4967365;28;20069;-42
2021/01/20 15:04:46;;;;;;;18.33;10.95;;;18.50;67.50;;;;;;4970752;28;20042;-43
2021/01/20 15:07:11;;;;;;;13.05;10.80;;;18.50;67.50;;;;;;4969300;28;20054;-44
2021/01/20 15:09:37;;;;;;;13.88;10.55;;;18.60;67.50;;;;;;4967675;28;20069;-45
2021/01/20 15:12:04;;;;;;;11.48;10.13;;;18.60;67.30;;;;;;4968153;28;20043;-39
2021/01/20 15:14:29;;;;;;;13.65;10.35;;;18.60;67.30;;;;;;4967567;28;20604;-41
2021/01/20 15:16:55;;;;;;;12.60;9.93;;;18.60;67.30;;;;;;4968613;28;20047;-46
2021/01/20 15:19:20;;;;;;;14.05;10.90;;;18.60;67.20;;;;;;4971539;28;20126;-43
2021/01/20 15:21:46;;;;;;;12.85;9.95;;;18.60;67.10;;;;;;4969793;28;20055;-44
2021/01/20 15:24:12;;;;;;;13.32;10.27;;;18.60;67.10;;;;;;4627008;28;10000636;-44
2021/01/20 15:26:37;;;;;;;12.00;9.88;;;18.60;67.20;;;;;;4967879;28;20050;-43
2021/01/20 15:29:03;;;;;;;13.30;9.82;;;18.60;67.20;;;;;;4967050;28;20093;-48
2021/01/20 15:31:30;;;;;;;12.43;9.18;;;18.70;66.90;;;;;;4967911;28;20516;-48
2021/01/20 15:33:57;;;;;;;10.95;9.02;;;18.70;66.70;;;;;;4968901;28;20106;-48
2021/01/20 15:36:24;;;;;;;12.07;9.20;;;18.70;66.70;;;;;;4968027;28;20138;-41
2021/01/20 15:38:49;;;;;;;13.13;9.45;;;18.70;66.60;;;;;;4967282;28;20051;-47
2021/01/20 15:41:15;;;;;;;9.90;8.63;;;18.70;66.60;;;;;;4967740;28;20094;-47
2021/01/20 15:43:41;;;;;;;12.27;9.05;;;18.70;66.70;;;;;;4969275;28;20042;-47
2021/01/20 15:46:06;;;;;;;9.80;8.50;;;18.70;66.60;;;;;;4964870;28;20085;-43
2021/01/20 15:48:33;;;;;;;9.95;8.23;;;18.70;66.70;;;;;;4978529;28;20046;-42
2021/01/20 15:50:58;;;;;;;9.52;7.70;;;18.70;66.70;;;;;;4966655;28;20055;-47
2021/01/20 15:53:24;;;;;;;9.70;8.15;;;18.70;66.50;;;;;;4967631;28;20162;-45
2021/01/20 15:55:50;;;;;;;9.52;7.65;;;18.70;66.30;;;;;;4969369;28;20043;-46
2021/01/20 15:58:15;;;;;;;9.13;8.18;;;18.80;66.30;;;;;;4973454;28;20532;-46
2021/01/20 16:00:41;;;;;;;7.97;7.25;;;18.70;66.10;;;;;;4970269;28;20043;-47
2021/01/20 16:03:07;;;;;;;12.35;7.72;;;18.80;66.10;;;;;;4971487;28;20043;-45
2021/01/20 16:05:34;;;;;;;10.98;7.88;;;18.80;66.10;;;;;;5002429;28;20061;-45
2021/01/20 16:07:59;;;;;;;9.15;7.60;;;18.80;66.00;;;;;;4975556;28;20038;-46
2021/01/20 16:10:25;;;;;;;7.15;6.50;;;18.70;66.00;;;;;;4973579;28;20049;-45
2021/01/20 16:12:54;;;;;;;8.07;6.70;;;18.70;66.20;;;;;;4971597;28;20057;-45
2021/01/20 16:15:20;;;;;;;8.15;6.95;;;18.70;66.10;;;;;;4971340;28;20065;-44
2021/01/20 16:17:47;;;;;;;10.25;7.32;;;18.70;66.20;;;;;;4985327;28;20054;-43
2021/01/20 16:20:13;;;;;;;8.50;7.10;;;18.70;66.20;;;;;;4970927;28;20055;-45
2021/01/20 16:22:38;;;;;;;9.48;6.90;;;18.70;66.20;;;;;;4971349;28;20193;-43
2021/01/20 16:25:05;;;;;;;7.97;7.18;;;18.70;66.20;;;;;;4974071;28;20477;-40
2021/01/20 16:27:31;;;;;;;10.02;6.18;;;18.70;66.20;;;;;;4969891;28;20074;-43
2021/01/20 16:29:59;;;;;;;8.30;6.43;;;18.60;66.20;;;;;;4969561;28;20043;-45
2021/01/20 16:32:25;;;;;;;7.13;6.28;;;18.60;66.30;;;;;;4969189;28;20097;-43
2021/01/20 16:34:51;;;;;;;7.50;6.65;;;18.60;66.30;;;;;;4968466;28;20520;-43
2021/01/20 16:37:16;;;;;;;7.75;6.03;;;18.60;66.30;;;;;;4973382;28;20077;-46
2021/01/20 16:39:42;;;;;;;7.35;6.38;;;18.60;66.30;;;;;;4969598;28;20426;-43
2021/01/20 16:42:09;;;;;;;8.18;6.30;;;18.60;66.30;;;;;;4985399;28;20130;-45
2021/01/20 16:44:35;;;;;;;7.38;6.57;;;18.60;66.50;;;;;;4970784;28;20043;-44
2021/01/20 16:47:00;;;;;;;7.03;6.32;;;18.60;66.50;;;;;;4972729;28;20475;-45
2021/01/20 16:49:26;;;;;;;6.65;5.53;;;18.60;66.20;;;;;;4973772;28;20057;-46
2021/01/20 16:51:52;;;;;;;7.80;5.97;;;18.60;66.30;;;;;;4971072;28;20047;-43
2021/01/20 16:54:17;;;;;;;7.03;6.25;;;18.60;66.20;;;;;;4969255;28;20452;-46
2021/01/20 16:56:44;;;;;;;6.47;5.70;;;18.60;66.20;;;;;;4624197;28;10001298;-44
2021/01/20 16:59:10;;;;;;;6.60;5.97;;;18.60;66.10;;;;;;4966202;28;20452;-46
2021/01/20 17:01:37;;;;;;;6.13;5.53;;;18.50;66.30;;;;;;4996653;28;20050;-40
2021/01/20 17:04:03;;;;;;;6.38;5.63;;;18.50;67.20;;;;;;4967503;28;20055;-43
2021/01/20 17:06:28;;;;;;;6.20;5.60;;;18.50;66.60;;;;;;4962350;28;20054;-49
2021/01/20 17:08:54;;;;;;;5.65;5.15;;;18.40;66.70;;;;;;4966249;28;20054;-46
2021/01/20 17:11:20;;;;;;;6.45;5.65;;;18.40;66.70;;;;;;4980433;28;20058;-47
2021/01/20 17:13:45;;;;;;;5.97;5.35;;;18.40;66.80;;;;;;4969110;28;20047;-45
2021/01/20 17:16:11;;;;;;;11.52;5.75;;;18.40;66.90;;;;;;4972955;28;20047;-45
2021/01/20 17:18:36;;;;;;;8.23;6.50;;;18.50;67.00;;;;;;4964645;28;20476;-46
2021/01/20 17:21:02;;;;;;;13.88;7.28;;;18.50;67.20;;;;;;4966690;28;20077;-43
2021/01/20 17:23:28;;;;;;;13.45;7.38;;;18.50;66.50;;;;;;4966618;28;20054;-50
2021/01/20 17:25:54;;;;;;;9.90;6.80;;;18.50;66.80;;;;;;4967426;28;20448;-43
2021/01/20 17:28:21;;;;;;;6.90;6.20;;;18.50;66.80;;;;;;4970184;28;20051;-43
2021/01/20 17:30:46;;;;;;;13.93;6.30;;;18.60;67.00;;;;;;4969754;28;20041;-44
2021/01/20 17:33:12;;;;;;;11.80;6.55;;;18.60;67.20;;;;;;4968118;28;20046;-44
2021/01/20 17:35:37;;;;;;;12.27;5.75;;;18.60;67.20;;;;;;4968076;28;20063;-45
2021/01/20 17:38:03;;;;;;;7.13;5.93;;;18.60;67.50;;;;;;4964715;28;20085;-47
2021/01/20 17:40:28;;;;;;;7.55;5.38;;;18.60;68.30;;;;;;4969132;28;20057;-44
2021/01/20 17:42:54;;;;;;;10.77;6.47;;;18.60;67.80;;;;;;4969180;28;20058;-43
2021/01/20 17:45:20;;;;;;;8.65;6.70;;;18.70;67.00;;;;;;4968263;28;20416;-44
2021/01/20 17:47:45;;;;;;;8.23;5.88;;;18.70;66.80;;;;;;4967023;28;20137;-41
2021/01/20 17:50:11;;;;;;;13.35;6.10;;;18.70;66.80;;;;;;4966694;28;20035;-44
2021/01/20 17:52:37;;;;;;;8.20;6.63;;;18.70;66.80;;;;;;4968864;28;20502;-43
2021/01/20 17:55:07;;;;;;;7.90;6.57;;;18.60;66.90;;;;;;4998650;28;20035;-43
2021/01/20 17:57:32;;;;;;;6.57;5.88;;;18.60;67.20;;;;;;4968518;28;20053;-44
2021/01/20 17:59:58;;;;;;;9.55;5.70;;;18.60;67.40;;;;;;4964343;28;20063;-43
2021/01/20 18:02:23;;;;;;;7.32;5.55;;;18.70;67.40;;;;;;4965996;28;20074;-44
2021/01/20 18:04:49;;;;;;;5.68;5.13;;;18.70;67.80;;;;;;4966231;28;20050;-46
2021/01/20 18:07:15;;;;;;;6.07;5.25;;;18.70;67.50;;;;;;4970837;28;20472;-43
2021/01/20 18:09:41;;;;;;;8.23;5.47;;;18.80;67.50;;;;;;4998842;28;20122;-48
2021/01/20 18:12:07;;;;;;;9.52;4.68;;;18.80;67.20;;;;;;4969464;28;20066;-43